Time;durP1;ratioP1;P1;durP2;ratioP2;P2;SDS_P1;SDS_P2;PMS_P1;PMS_P2;Temp;Humidity;BMP_temperature;BMP_pressure;BME280_temperature;BME280_humidity;BME280_pressure;Samples;Min_cycle;Max_cycle;Signal;HPM_P1;HPM_P2
2022/05/08 00:01:13;;;;;;;;;;;;;;;21.16;49.21;101858.31;5117571;27;4340;-61
2022/05/08 00:03:40;;;;;;;;;;;;;;;21.16;49.47;101864.09;5119710;27;4322;-61
2022/05/08 00:06:11;;;;;;;;;;;;;;;21.15;49.34;101864.72;5116681;27;4250;-61
2022/05/08 00:08:37;;;;;;;;;;;;;;;21.16;49.25;101854.69;5115235;27;4074;-61
2022/05/08 00:11:05;;;;;;;;;;;;;;;21.15;49.30;101859.72;5117388;27;4175;-62
2022/05/08 00:13:31;;;;;;;;;;;;;;;21.15;49.40;101848.19;5116278;27;4170;-61
2022/05/08 00:15:58;;;;;;;;;;;;;;;21.15;49.42;101853.94;5113076;27;4179;-61
2022/05/08 00:18:25;;;;;;;;;;;;;;;21.15;49.29;101859.72;5109799;27;4429;-61
2022/05/08 00:20:51;;;;;;;;;;;;;;;21.14;49.31;101858.19;5115199;27;4229;-61
2022/05/08 00:23:18;;;;;;;;;;;;;;;21.14;49.31;101855.31;5113056;27;4173;-61
2022/05/08 00:25:46;;;;;;;;;;;;;;;21.15;49.39;101861.84;5115396;27;5620;-61
2022/05/08 00:28:12;;;;;;;;;;;;;;;21.15;49.35;101862.59;5110058;27;4172;-61
2022/05/08 00:30:38;;;;;;;;;;;;;;;21.13;49.28;101854.56;5116609;27;4090;-61
2022/05/08 00:33:05;;;;;;;;;;;;;;;21.11;49.35;101856.59;5113202;27;4202;-62
2022/05/08 00:35:31;;;;;;;;;;;;;;;21.10;49.42;101855.09;5118581;27;4237;-61
2022/05/08 00:37:57;;;;;;;;;;;;;;;21.10;49.44;101855.09;5118284;27;4217;-61
2022/05/08 00:40:24;;;;;;;;;;;;;;;21.10;49.39;101860.84;5115900;27;4232;-61
2022/05/08 00:42:52;;;;;;;;;;;;;;;21.10;49.36;101869.50;5116911;27;4008;-61
2022/05/08 00:45:18;;;;;;;;;;;;;;;21.09;49.45;101862.97;5116448;27;4181;-61
2022/05/08 00:47:46;;;;;;;;;;;;;;;21.08;49.47;101864.34;5118837;27;4620;-61
2022/05/08 00:50:12;;;;;;;;;;;;;;;21.09;49.44;101859.34;5111259;27;4199;-61
2022/05/08 00:52:39;;;;;;;;;;;;;;;21.09;49.60;101862.22;5113867;27;4252;-61
2022/05/08 00:55:06;;;;;;;;;;;;;;;21.09;49.56;101862.22;5112527;27;5239;-61
2022/05/08 00:57:33;;;;;;;;;;;;;;;21.10;49.40;101863.75;5100159;27;4005;-61
2022/05/08 01:00:03;;;;;;;;;;;;;;;21.09;49.51;101851.44;5119144;27;4227;-61
2022/05/08 01:02:31;;;;;;;;;;;;;;;21.09;49.28;101856.47;5101804;27;4041;-61
2022/05/08 01:04:57;;;;;;;;;;;;;;;21.08;49.38;101861.47;5112165;27;4220;-61
2022/05/08 01:07:26;;;;;;;;;;;;;;;21.08;49.61;101854.97;5107359;27;4046;-61
2022/05/08 01:09:53;;;;;;;;;;;;;;;21.08;49.31;101855.72;5099092;27;4208;-61
2022/05/08 01:12:19;;;;;;;;;;;;;;;21.08;49.38;101854.97;5114802;27;4205;-61
2022/05/08 01:14:46;;;;;;;;;;;;;;;21.07;49.44;101854.22;5098340;27;4023;-61
2022/05/08 01:17:15;;;;;;;;;;;;;;;21.08;49.22;101860.72;5103555;27;4229;-61
2022/05/08 01:19:42;;;;;;;;;;;;;;;21.08;49.43;101854.97;5111987;27;4244;-61
2022/05/08 01:22:08;;;;;;;;;;;;;;;21.07;49.32;101850.56;5112562;27;4289;-61
2022/05/08 01:24:35;;;;;;;;;;;;;;;21.07;49.38;101864.97;5107347;27;4202;-61
2022/05/08 01:27:01;;;;;;;;;;;;;;;21.06;49.36;101851.97;5112484;27;4212;-61
2022/05/08 01:29:27;;;;;;;;;;;;;;;21.07;49.33;101853.47;5108731;27;4387;-61
2022/05/08 01:31:54;;;;;;;;;;;;;;;21.07;49.30;101859.22;5111877;27;5421;-61
2022/05/08 01:34:20;;;;;;;;;;;;;;;21.06;49.30;101857.72;5111578;27;5416;-61
2022/05/08 01:36:47;;;;;;;;;;;;;;;21.06;49.21;101857.72;5111006;27;4269;-61
2022/05/08 01:39:13;;;;;;;;;;;;;;;21.06;49.24;101854.84;5118665;27;4278;-61
2022/05/08 01:41:39;;;;;;;;;;;;;;;21.05;49.31;101857.00;5111577;27;4248;-61
2022/05/08 01:44:06;;;;;;;;;;;;;;;21.06;49.39;101854.84;5117378;27;5417;-61
2022/05/08 01:46:32;;;;;;;;;;;;;;;21.05;49.23;101861.97;5113702;27;4047;-61
2022/05/08 01:48:58;;;;;;;;;;;;;;;21.06;49.28;101857.72;5110799;27;4067;-61
2022/05/08 01:51:25;;;;;;;;;;;;;;;21.05;49.30;101864.84;5108744;27;4010;-61
2022/05/08 01:53:51;;;;;;;;;;;;;;;21.04;49.17;101854.72;5104275;27;4244;-61
2022/05/08 01:56:19;;;;;;;;;;;;;;;21.05;49.19;101861.97;5110519;27;4362;-61
2022/05/08 01:58:47;;;;;;;;;;;;;;;21.05;49.29;101861.97;5110904;27;6531;-61
2022/05/08 02:01:14;;;;;;;;;;;;;;;21.05;49.09;101856.22;5113748;27;4179;-61
2022/05/08 02:03:42;;;;;;;;;;;;;;;21.05;49.07;101861.97;5100719;27;4786;-61
2022/05/08 02:06:08;;;;;;;;;;;;;;;21.04;49.26;101855.47;5106691;27;4133;-61
2022/05/08 02:08:34;;;;;;;;;;;;;;;21.05;49.13;101856.22;5113034;27;4038;-61
2022/05/08 02:11:01;;;;;;;;;;;;;;;21.03;49.09;101859.75;5110596;27;4329;-61
2022/05/08 02:13:27;;;;;;;;;;;;;;;21.03;49.05;101859.00;5112323;27;4406;-61
2022/05/08 02:15:53;;;;;;;;;;;;;;;21.04;49.36;101866.25;5109766;27;4398;-61
2022/05/08 02:18:20;;;;;;;;;;;;;;;21.03;49.15;101862.63;5108620;27;4272;-61
2022/05/08 02:20:47;;;;;;;;;;;;;;;21.04;49.05;101872.00;5109684;27;4389;-61
2022/05/08 02:23:13;;;;;;;;;;;;;;;21.04;49.08;101872.75;5111002;27;4222;-61
2022/05/08 02:25:40;;;;;;;;;;;;;;;21.05;49.23;101880.03;5113238;27;3960;-61
2022/05/08 02:28:06;;;;;;;;;;;;;;;21.05;49.03;101887.91;5113749;27;5449;-61
2022/05/08 02:30:33;;;;;;;;;;;;;;;21.04;49.03;101886.41;5116166;27;4591;-61
2022/05/08 02:33:00;;;;;;;;;;;;;;;21.03;49.11;101893.56;5111543;27;4431;-61
2022/05/08 02:35:26;;;;;;;;;;;;;;;21.03;49.08;101876.28;5110199;27;6417;-60
2022/05/08 02:37:53;;;;;;;;;;;;;;;21.02;49.04;101880.53;5113641;27;4206;-61
2022/05/08 02:40:20;;;;;;;;;;;;;;;21.02;49.02;101886.28;5112454;27;5249;-61
2022/05/08 02:42:46;;;;;;;;;;;;;;;21.03;49.04;101876.28;5113649;27;4181;-61
2022/05/08 02:45:12;;;;;;;;;;;;;;;21.04;49.03;101889.28;5103585;27;4074;-61
2022/05/08 02:47:43;;;;;;;;;;;;;;;21.01;49.19;101885.53;5114260;27;4338;-61
2022/05/08 02:50:09;;;;;;;;;;;;;;;21.02;49.06;101883.41;5112031;27;4185;-61
2022/05/08 02:52:37;;;;;;;;;;;;;;;21.02;49.10;101877.63;5113225;27;4211;-61
2022/05/08 02:58:32;;;;;;;;;;;;;;;21.02;49.13;101892.03;5112905;27;5644;-61
2022/05/08 03:00:35;;;;;;;;;;;;;;;21.01;49.22;101899.19;5113359;27;5073;-61
2022/05/08 03:03:03;;;;;;;;;;;;;;;21.03;49.00;101893.56;5109237;27;4174;-61
2022/05/08 03:05:29;;;;;;;;;;;;;;;21.03;49.23;101893.56;5114070;27;4224;-61
2022/05/08 03:07:55;;;;;;;;;;;;;;;21.02;49.07;101892.03;5112946;27;4240;-61
2022/05/08 03:10:22;;;;;;;;;;;;;;;21.01;49.04;101893.44;5112787;27;5259;-61
2022/05/08 03:12:48;;;;;;;;;;;;;;;21.03;49.07;101899.31;5116148;27;4226;-61
2022/05/08 03:15:16;;;;;;;;;;;;;;;21.02;49.19;101903.56;5111292;27;5294;-61
2022/05/08 03:17:42;;;;;;;;;;;;;;;21.02;49.20;101909.31;5109538;27;4157;-61
2022/05/08 03:20:09;;;;;;;;;;;;;;;21.02;49.06;101903.56;5112928;27;5269;-61
2022/05/08 03:22:36;;;;;;;;;;;;;;;21.01;49.32;101907.84;5114336;27;4283;-61
2022/05/08 03:25:02;;;;;;;;;;;;;;;21.01;49.30;101904.94;5110782;27;4050;-61
2022/05/08 03:27:30;;;;;;;;;;;;;;;21.01;49.02;101907.84;5113176;27;4615;-61
2022/05/08 03:29:58;;;;;;;;;;;;;;;21.01;49.07;101913.59;5115835;27;4446;-61
2022/05/08 03:32:25;;;;;;;;;;;;;;;21.00;49.04;101920.72;5119131;27;4165;-61
2022/05/08 03:34:51;;;;;;;;;;;;;;;21.01;49.14;101919.34;5111586;27;4135;-61
2022/05/08 03:37:17;;;;;;;;;;;;;;;21.00;49.08;101923.59;5114031;27;4533;-61
2022/05/08 03:39:44;;;;;;;;;;;;;;;21.00;49.13;101930.09;5113425;27;4256;-61
2022/05/08 03:42:12;;;;;;;;;;;;;;;20.97;49.18;101930.63;5117138;27;4229;-62
2022/05/08 03:44:40;;;;;;;;;;;;;;;20.99;49.22;101939.38;5111563;27;4097;-61
2022/05/08 03:47:12;;;;;;;;;;;;;;;20.99;49.32;101930.75;5109545;27;5337;-61
2022/05/08 03:49:39;;;;;;;;;;;;;;;21.00;49.31;101935.09;5116455;27;4248;-61
2022/05/08 03:52:07;;;;;;;;;;;;;;;21.01;49.29;101936.63;5109931;27;5319;-62
2022/05/08 03:54:33;;;;;;;;;;;;;;;21.00;49.10;101932.22;5120055;27;4137;-61
2022/05/08 03:56:59;;;;;;;;;;;;;;;21.01;49.09;101928.00;5112934;27;4236;-61
2022/05/08 03:59:26;;;;;;;;;;;;;;;21.00;49.09;101929.34;5116509;27;4340;-61
2022/05/08 04:01:55;;;;;;;;;;;;;;;21.00;49.09;101924.34;5106582;27;4212;-61
2022/05/08 04:04:21;;;;;;;;;;;;;;;21.00;49.15;101920.72;5114099;27;4147;-61
2022/05/08 04:06:47;;;;;;;;;;;;;;;20.99;49.18;101933.63;5105349;27;5236;-61
2022/05/08 04:09:16;;;;;;;;;;;;;;;20.99;49.16;101928.59;5116257;27;4074;-61
2022/05/08 04:11:42;;;;;;;;;;;;;;;21.00;49.28;101929.34;5110418;27;4370;-61
2022/05/08 04:14:08;;;;;;;;;;;;;;;21.00;49.21;101929.34;5113856;27;4327;-61
2022/05/08 04:16:35;;;;;;;;;;;;;;;20.99;49.12;101933.63;5116695;27;4223;-61
2022/05/08 04:19:01;;;;;;;;;;;;;;;21.00;48.98;101935.09;5116098;27;4163;-61
2022/05/08 04:21:27;;;;;;;;;;;;;;;21.00;49.03;101935.09;5113592;27;4125;-61
2022/05/08 04:26:39;;;;;;;;;;;;;;;21.00;49.07;101940.88;5117027;27;4126;-61
2022/05/08 04:29:05;;;;;;;;;;;;;;;21.00;49.07;101955.28;5116224;27;4152;-61
2022/05/08 04:31:32;;;;;;;;;;;;;;;20.99;49.24;101962.41;5113267;27;4361;-61
2022/05/08 04:33:58;;;;;;;;;;;;;;;20.99;49.26;101965.28;5109958;27;4108;-61
2022/05/08 04:36:25;;;;;;;;;;;;;;;20.99;49.10;101963.16;5114028;27;5220;-61
2022/05/08 04:38:51;;;;;;;;;;;;;;;20.98;49.01;101964.56;5114949;27;4221;-60
2022/05/08 04:41:18;;;;;;;;;;;;;;;20.99;49.20;101962.41;5111005;27;4195;-60
2022/05/08 04:43:45;;;;;;;;;;;;;;;21.00;49.01;101969.66;5112831;27;4042;-60
2022/05/08 04:46:12;;;;;;;;;;;;;;;20.98;49.05;101972.41;5114129;27;4189;-60
2022/05/08 04:48:41;;;;;;;;;;;;;;;20.99;49.07;101977.56;5114440;27;4250;-60
2022/05/08 04:51:08;;;;;;;;;;;;;;;20.99;49.03;101980.44;5110747;27;4086;-60
2022/05/08 04:53:34;;;;;;;;;;;;;;;20.98;48.96;101981.84;5114778;27;4227;-60
2022/05/08 04:56:00;;;;;;;;;;;;;;;20.98;49.03;101973.19;5119064;27;5241;-60
2022/05/08 04:58:29;;;;;;;;;;;;;;;20.99;49.00;101971.06;5114418;27;4245;-60
2022/05/08 05:00:56;;;;;;;;;;;;;;;20.98;49.02;101978.19;5116524;27;3977;-60
2022/05/08 05:03:24;;;;;;;;;;;;;;;20.98;48.99;101983.94;5115390;27;4920;-60
2022/05/08 05:05:51;;;;;;;;;;;;;;;20.99;49.21;101988.34;5112832;27;6337;-60
2022/05/08 05:08:18;;;;;;;;;;;;;;;20.99;49.00;101985.47;5115759;27;4153;-60
2022/05/08 05:10:45;;;;;;;;;;;;;;;20.97;49.18;101988.94;5114948;27;5409;-60
2022/05/08 05:13:11;;;;;;;;;;;;;;;20.97;49.22;101997.59;5113391;27;4231;-60
2022/05/08 05:15:37;;;;;;;;;;;;;;;20.97;49.02;102000.47;5108601;27;4274;-60
2022/05/08 05:18:04;;;;;;;;;;;;;;;20.97;49.04;101991.09;5115172;27;5273;-59
2022/05/08 05:20:30;;;;;;;;;;;;;;;20.97;49.03;101991.09;5112967;27;5310;-60
2022/05/08 05:23:02;;;;;;;;;;;;;;;20.97;49.13;102000.47;5116981;27;4432;-60
2022/05/08 05:25:28;;;;;;;;;;;;;;;20.97;48.98;101999.72;5115667;27;5221;-60
2022/05/08 05:27:55;;;;;;;;;;;;;;;20.97;49.18;101999.72;5115283;27;5422;-60
2022/05/08 05:30:21;;;;;;;;;;;;;;;20.96;49.23;102003.97;5113756;27;5256;-60
2022/05/08 05:32:47;;;;;;;;;;;;;;;20.96;49.20;102010.50;5116119;27;4610;-59
2022/05/08 05:35:14;;;;;;;;;;;;;;;20.97;49.04;102002.59;5112230;27;4482;-58
2022/05/08 05:37:40;;;;;;;;;;;;;;;20.89;47.72;102006.47;5111539;27;5555;-61
2022/05/08 05:40:07;;;;;;;;;;;;;;;20.88;47.91;102010.72;5112335;27;5258;-62
2022/05/08 05:42:37;;;;;;;;;;;;;;;20.89;48.59;102023.75;5111682;27;4347;-60
2022/05/08 05:45:03;;;;;;;;;;;;;;;20.92;48.54;102019.63;5113771;27;5299;-60
2022/05/08 05:50:31;;;;;;;;;;;;;;;20.93;48.50;102024.00;5009135;28;4138;-61
2022/05/08 05:52:58;;;;;;;;;;;;;;;20.93;48.51;102026.88;5093370;27;4407;-60
2022/05/08 05:55:24;;;;;;;;;;;;;;;20.95;48.63;102028.38;5091506;27;4081;-61
2022/05/08 05:57:50;;;;;;;;;;;;;;;20.96;48.58;102027.00;5107873;27;4803;-60
2022/05/08 06:00:17;;;;;;;;;;;;;;;20.95;48.66;102037.03;5113780;27;4330;-60
2022/05/08 06:02:44;;;;;;;;;;;;;;;20.95;48.79;102034.91;5109945;27;4084;-60
2022/05/08 06:05:10;;;;;;;;;;;;;;;20.95;48.69;102025.50;5110083;27;4368;-61
2022/05/08 06:07:38;;;;;;;;;;;;;;;20.96;48.73;102027.00;5114483;27;4204;-60
2022/05/08 06:10:05;;;;;;;;;;;;;;;20.96;48.67;102033.53;5113077;27;4349;-60
2022/05/08 06:12:31;;;;;;;;;;;;;;;20.96;48.77;102035.63;5112006;27;4151;-60
2022/05/08 06:14:58;;;;;;;;;;;;;;;20.97;48.65;102028.53;5111760;27;5502;-60
2022/05/08 06:17:24;;;;;;;;;;;;;;;20.96;48.68;102033.53;5105458;27;5232;-60
2022/05/08 06:19:51;;;;;;;;;;;;;;;20.97;48.69;102040.03;5113255;27;4167;-60
2022/05/08 06:22:17;;;;;;;;;;;;;;;20.97;48.79;102035.03;5107104;27;4227;-60
2022/05/08 06:24:43;;;;;;;;;;;;;;;20.97;48.78;102034.28;5111023;27;4308;-60
2022/05/08 06:27:10;;;;;;;;;;;;;;;20.99;48.79;102037.28;5112059;27;4190;-61
2022/05/08 06:29:37;;;;;;;;;;;;;;;20.98;48.90;102041.53;5110221;27;4546;-60
2022/05/08 06:32:03;;;;;;;;;;;;;;;20.98;48.97;102035.78;5114377;27;4501;-60
2022/05/08 06:34:29;;;;;;;;;;;;;;;21.00;48.82;102038.78;5117811;27;4563;-61
2022/05/08 06:36:56;;;;;;;;;;;;;;;20.99;49.03;102038.03;5108685;27;5712;-60
2022/05/08 06:39:22;;;;;;;;;;;;;;;20.99;48.87;102040.91;5111242;27;4199;-61
2022/05/08 06:41:49;;;;;;;;;;;;;;;21.00;48.69;102033.03;5111564;27;4301;-60
2022/05/08 06:44:17;;;;;;;;;;;;;;;21.01;48.89;102043.19;5109716;27;4190;-60
2022/05/08 06:46:43;;;;;;;;;;;;;;;21.01;48.85;102041.03;5107806;27;4149;-61
2022/05/08 06:49:10;;;;;;;;;;;;;;;21.01;48.80;102043.19;5114664;27;5410;-60
2022/05/08 06:51:36;;;;;;;;;;;;;;;21.01;48.83;102049.69;5107455;27;4213;-61
2022/05/08 06:54:02;;;;;;;;;;;;;;;21.01;48.77;102043.19;5108157;27;4229;-60
2022/05/08 06:56:31;;;;;;;;;;;;;;;21.01;48.82;102052.56;5114354;27;4180;-61
2022/05/08 07:01:43;;;;;;;;;;;;;;;21.02;48.98;102041.78;5108328;27;4189;-60
2022/05/08 07:04:10;;;;;;;;;;;;;;;21.01;49.12;102046.81;5114469;27;4198;-61
2022/05/08 07:06:37;;;;;;;;;;;;;;;21.01;48.79;102054.69;5113276;27;5207;-60
2022/05/08 07:09:10;;;;;;;;;;;;;;;21.01;48.77;102057.56;5106694;27;4251;-61
2022/05/08 07:11:41;;;;;;;;;;;;;;;21.01;48.78;102051.81;5108746;27;5292;-60
2022/05/08 07:14:11;;;;;;;;;;;;;;;21.01;48.78;102057.56;5108803;27;5285;-61
2022/05/08 07:16:37;;;;;;;;;;;;;;;21.02;48.84;102064.84;5112537;27;6524;-60
2022/05/08 07:19:03;;;;;;;;;;;;;;;21.03;48.75;102066.34;5111662;27;4215;-60
2022/05/08 07:21:30;;;;;;;;;;;;;;;21.00;48.86;102061.81;5111310;27;4186;-60
2022/05/08 07:23:56;;;;;;;;;;;;;;;21.00;48.81;102070.47;5112319;27;4047;-60
2022/05/08 07:26:22;;;;;;;;;;;;;;;20.99;48.95;102072.59;5109564;27;4251;-60
2022/05/08 07:28:49;;;;;;;;;;;;;;;21.00;48.82;102064.69;5112903;27;5264;-60
2022/05/08 07:31:15;;;;;;;;;;;;;;;20.99;48.88;102068.97;5111653;27;4216;-60
2022/05/08 07:33:42;;;;;;;;;;;;;;;20.98;48.86;102064.56;5110405;27;4227;-60
2022/05/08 07:36:14;;;;;;;;;;;;;;;20.99;48.97;102077.59;5112482;27;4224;-60
2022/05/08 07:38:41;;;;;;;;;;;;;;;20.98;48.84;102070.31;5109857;27;4235;-60
2022/05/08 07:41:08;;;;;;;;;;;;;;;20.98;48.91;102064.56;5113488;27;4158;-61
2022/05/08 07:43:34;;;;;;;;;;;;;;;20.97;48.85;102066.69;5112399;27;4258;-60
2022/05/08 07:46:01;;;;;;;;;;;;;;;20.99;48.94;102066.09;5115521;27;4162;-60
2022/05/08 07:48:27;;;;;;;;;;;;;;;20.98;48.91;102070.31;5112595;27;4205;-61
2022/05/08 07:50:54;;;;;;;;;;;;;;;20.98;48.92;102061.69;5114247;28;4500;-59
2022/05/08 07:53:20;;;;;;;;;;;;;;;20.98;48.97;102064.56;5115633;27;5419;-60
2022/05/08 07:55:51;;;;;;;;;;;;;;;20.97;49.07;102068.84;5109466;27;4129;-61
2022/05/08 07:58:19;;;;;;;;;;;;;;;21.00;49.05;102064.69;5107549;27;4168;-60
2022/05/08 08:00:45;;;;;;;;;;;;;;;20.95;46.25;102065.81;5103464;27;4234;-59
2022/05/08 08:03:11;;;;;;;;;;;;;;;20.87;45.76;102072.56;5105464;27;5592;-60
2022/05/08 08:05:38;;;;;;;;;;;;;;;20.87;46.29;102072.56;5115877;28;4241;-59
2022/05/08 08:08:25;;;;;;;;;;;;;;;20.88;46.00;102074.06;5112495;27;4677;-59
2022/05/08 08:10:52;;;;;;;;;;;;;;;20.89;46.27;102077.69;5110686;27;4194;-59
2022/05/08 08:13:19;;;;;;;;;;;;;;;20.89;46.79;102081.34;5110543;27;4263;-59
2022/05/08 08:15:46;;;;;;;;;;;;;;;20.89;47.13;102072.72;5119033;27;4155;-59
2022/05/08 08:18:12;;;;;;;;;;;;;;;20.89;47.26;102075.59;5113597;27;4119;-59
2022/05/08 08:20:39;;;;;;;;;;;;;;;20.89;47.55;102077.69;5114800;27;4179;-59
2022/05/08 08:23:05;;;;;;;;;;;;;;;20.43;45.67;102079.03;5112312;27;4230;-60
2022/05/08 08:25:32;;;;;;;;;;;;;;;20.33;45.39;102079.13;5109399;27;4327;-59
2022/05/08 08:27:58;;;;;;;;;;;;;;;20.16;44.74;102088.03;5113893;27;4118;-57
2022/05/08 08:30:24;;;;;;;;;;;;;;;19.99;44.63;102084.09;5109774;27;4127;-58
2022/05/08 08:32:51;;;;;;;;;;;;;;;19.36;44.33;102091.25;5105489;27;4481;-58
2022/05/08 08:35:17;;;;;;;;;;;;;;;19.79;44.41;102092.09;5094648;27;4184;-59
2022/05/08 08:37:44;;;;;;;;;;;;;;;19.94;44.26;102084.44;5105582;27;4986;-59
2022/05/08 08:40:10;;;;;;;;;;;;;;;20.11;44.04;102092.03;5115465;27;4151;-64
2022/05/08 08:42:40;;;;;;;;;;;;;;;20.23;43.93;102093.59;5117252;27;4325;-61
2022/05/08 08:47:58;;;;;;;;;;;;;;;20.32;44.04;102089.16;5115374;27;4146;-64
2022/05/08 08:50:26;;;;;;;;;;;;;;;20.32;43.86;102099.88;5110175;27;4210;-61
2022/05/08 08:52:53;;;;;;;;;;;;;;;20.32;43.63;102094.13;5110252;27;3971;-62
2022/05/08 08:55:20;;;;;;;;;;;;;;;20.36;43.61;102100.16;5102553;27;4306;-62
2022/05/08 08:57:47;;;;;;;;;;;;;;;20.40;43.80;102094.69;5102071;27;4192;-62
2022/05/08 09:00:13;;;;;;;;;;;;;;;20.43;44.26;102102.84;5106517;27;4253;-62
2022/05/08 09:02:40;;;;;;;;;;;;;;;20.46;44.94;102098.72;5112196;27;4239;-62
2022/05/08 09:05:07;;;;;;;;;;;;;;;20.49;45.31;102099.59;5093806;27;4570;-62
2022/05/08 09:07:34;;;;;;;;;;;;;;;20.53;45.19;102102.00;5118170;27;4237;-63
2022/05/08 09:10:07;;;;;;;;;;;;;;;20.54;45.49;102104.22;5115409;27;5435;-62
2022/05/08 09:12:34;;;;;;;;;;;;;;;20.56;45.61;102097.88;5110632;27;4028;-62
2022/05/08 09:15:00;;;;;;;;;;;;;;;20.59;45.79;102105.28;5105113;27;3952;-62
2022/05/08 09:17:41;;;;;;;;;;;;;;;20.58;45.84;102109.53;5095423;27;4798;-62
2022/05/08 09:20:22;;;;;;;;;;;;;;;20.59;45.99;102102.41;5108947;27;4534;-63
2022/05/08 09:22:59;;;;;;;;;;;;;;;20.61;46.03;102108.28;5111434;27;4238;-62
2022/05/08 09:25:43;;;;;;;;;;;;;;;20.62;46.02;102107.69;5113885;27;5342;-62
2022/05/08 09:28:30;;;;;;;;;;;;;;;20.63;46.08;102099.78;5110874;27;4376;-62
2022/05/08 09:30:57;;;;;;;;;;;;;;;20.64;46.01;102104.94;5111089;27;4182;-63
2022/05/08 09:33:52;;;;;;;;;;;;;;;20.65;46.07;102108.56;5112216;27;4138;-62
2022/05/08 09:36:27;;;;;;;;;;;;;;;20.67;46.12;102105.81;5102367;27;4087;-62
2022/05/08 09:39:02;;;;;;;;;;;;;;;20.67;46.13;102102.94;5111337;27;4356;-62
2022/05/08 09:41:29;;;;;;;;;;;;;;;20.68;46.30;102101.56;5107940;27;4177;-62
2022/05/08 09:44:09;;;;;;;;;;;;;;;20.70;46.30;102104.56;5115131;27;5417;-62
2022/05/08 09:46:35;;;;;;;;;;;;;;;20.69;46.34;102114.59;5111655;27;4243;-62
2022/05/08 09:49:02;;;;;;;;;;;;;;;20.69;46.16;102111.72;5113971;27;4036;-62
2022/05/08 09:51:28;;;;;;;;;;;;;;;20.71;46.32;102106.84;5114002;27;5195;-63
2022/05/08 09:53:55;;;;;;;;;;;;;;;20.73;46.37;102105.44;5097735;27;4184;-62
2022/05/08 09:56:21;;;;;;;;;;;;;;;20.74;46.29;102104.84;5113309;27;4249;-62
2022/05/08 09:58:48;;;;;;;;;;;;;;;20.74;46.28;102110.59;5108085;27;4065;-62
2022/05/08 10:01:16;;;;;;;;;;;;;;;20.74;46.37;102110.59;5110331;27;4210;-62
2022/05/08 10:03:43;;;;;;;;;;;;;;;20.76;46.34;102102.09;5113162;27;4162;-63
2022/05/08 10:06:10;;;;;;;;;;;;;;;20.76;46.33;102107.84;5099812;27;4099;-62
2022/05/08 10:08:37;;;;;;;;;;;;;;;20.76;46.27;102099.22;5113237;27;4231;-62
2022/05/08 10:14:05;;;;;;;;;;;;;;;20.78;46.31;102110.88;5100697;27;4176;-62
2022/05/08 10:16:47;;;;;;;;;;;;;;;20.78;46.39;102110.88;5116187;27;4229;-62
2022/05/08 10:19:20;;;;;;;;;;;;;;;20.79;46.29;102100.09;5112224;27;4937;-62
2022/05/08 10:21:52;;;;;;;;;;;;;;;20.80;46.39;102108.13;5110283;27;4215;-62
2022/05/08 10:24:28;;;;;;;;;;;;;;;20.81;46.34;102108.88;5115098;27;4603;-62
2022/05/08 10:27:10;;;;;;;;;;;;;;;20.82;46.18;102111.13;5114592;27;4212;-62
2022/05/08 10:29:39;;;;;;;;;;;;;;;20.84;46.31;102102.59;5117366;27;4194;-62
2022/05/08 10:32:06;;;;;;;;;;;;;;;20.84;46.34;102104.72;5112977;27;5226;-61
2022/05/08 10:34:34;;;;;;;;;;;;;;;20.86;46.23;102102.72;5113921;27;4249;-61
2022/05/08 10:37:11;;;;;;;;;;;;;;;20.85;46.19;102107.00;5114658;27;5528;-62
2022/05/08 10:39:43;;;;;;;;;;;;;;;20.84;46.33;102105.47;5115104;27;4765;-62
2022/05/08 10:42:28;;;;;;;;;;;;;;;20.83;46.20;102101.09;5114735;27;4221;-64
2022/05/08 10:44:57;;;;;;;;;;;;;;;20.84;46.08;102102.59;5115839;27;4182;-58
2022/05/08 10:47:37;;;;;;;;;;;;;;;20.85;45.82;102104.13;5113237;27;4186;-58
2022/05/08 10:50:12;;;;;;;;;;;;;;;20.83;44.90;102101.09;5112874;27;5336;-58
2022/05/08 10:52:42;;;;;;;;;;;;;;;20.78;42.69;102104.34;5113616;27;4281;-59
2022/05/08 10:55:09;;;;;;;;;;;;;;;20.75;41.45;102103.44;5102950;27;5271;-58
2022/05/08 10:57:36;;;;;;;;;;;;;;;20.75;40.57;102102.69;5113132;27;4194;-59
2022/05/08 11:00:05;;;;;;;;;;;;;;;20.74;40.04;102101.97;5107421;27;4322;-58
2022/05/08 11:02:51;;;;;;;;;;;;;;;20.75;39.23;102099.81;5114386;27;5487;-58
2022/05/08 11:05:21;;;;;;;;;;;;;;;20.74;39.18;102093.31;5106266;27;4303;-59
2022/05/08 11:07:56;;;;;;;;;;;;;;;20.74;38.73;102096.19;5112350;27;4053;-58
2022/05/08 11:10:26;;;;;;;;;;;;;;;20.72;37.40;102087.44;5107406;27;4189;-59
2022/05/08 11:12:56;;;;;;;;;;;;;;;20.75;37.19;102094.06;5112133;27;4212;-58
2022/05/08 11:15:23;;;;;;;;;;;;;;;20.75;37.34;102097.69;5110536;27;4246;-59
2022/05/08 11:18:12;;;;;;;;;;;;;;;20.75;37.54;102091.94;5099621;28;4403;-65
2022/05/08 11:20:45;;;;;;;;;;;;;;;20.78;37.37;102092.84;5113574;27;4301;-63
2022/05/08 11:23:12;;;;;;;;;;;;;;;20.78;36.82;102093.59;5108621;27;5228;-61
2022/05/08 11:25:38;;;;;;;;;;;;;;;20.81;37.65;102086.56;5113514;28;4124;-62
2022/05/08 11:28:05;;;;;;;;;;;;;;;20.81;38.01;102092.34;5105207;27;4216;-65
2022/05/08 11:30:37;;;;;;;;;;;;;;;20.79;36.91;102089.31;5110535;27;4249;-64
2022/05/08 11:36:04;;;;;;;;;;;;;;;20.84;38.25;102096.84;5104441;28;4191;-64
2022/05/08 11:38:42;;;;;;;;;;;;;;;20.85;39.19;102100.50;5115856;28;4128;-63
2022/05/08 11:41:09;;;;;;;;;;;;;;;20.84;38.99;102096.84;5111367;27;4136;-64
2022/05/08 11:43:36;;;;;;;;;;;;;;;20.86;38.65;102096.97;5096949;28;4278;-64
2022/05/08 11:46:04;;;;;;;;;;;;;;;20.87;38.76;102100.63;5112943;27;5303;-63
2022/05/08 11:48:32;;;;;;;;;;;;;;;20.87;39.01;102095.59;5116926;27;4108;-64
2022/05/08 11:50:58;;;;;;;;;;;;;;;20.88;39.28;102096.34;5121776;27;4199;-63
2022/05/08 11:53:25;;;;;;;;;;;;;;;20.88;39.44;102097.09;5119377;27;4223;-64
2022/05/08 11:55:51;;;;;;;;;;;;;;;20.90;39.59;102087.84;5118105;27;4315;-63
2022/05/08 11:58:30;;;;;;;;;;;;;;;20.89;39.68;102095.75;5119588;27;4211;-64
2022/05/08 12:00:56;;;;;;;;;;;;;;;20.90;39.83;102100.13;5120875;27;5374;-63
2022/05/08 12:03:27;;;;;;;;;;;;;;;20.90;40.06;102088.59;5119037;27;4257;-64
2022/05/08 12:06:08;;;;;;;;;;;;;;;20.90;40.42;102094.34;5119846;27;4232;-64
2022/05/08 12:08:35;;;;;;;;;;;;;;;20.92;40.44;102085.84;5120609;27;4174;-64
2022/05/08 12:11:01;;;;;;;;;;;;;;;20.93;40.68;102093.09;5120481;27;4145;-63
2022/05/08 12:13:33;;;;;;;;;;;;;;;20.95;40.84;102085.97;5114091;27;4195;-63
2022/05/08 12:16:12;;;;;;;;;;;;;;;20.96;41.12;102096.13;5119635;27;4233;-64
2022/05/08 12:18:59;;;;;;;;;;;;;;;20.96;41.10;102090.34;5118813;27;4316;-64
2022/05/08 12:21:28;;;;;;;;;;;;;;;20.97;41.37;102095.50;5114733;27;4159;-63
2022/05/08 12:23:56;;;;;;;;;;;;;;;20.97;41.71;102101.25;5109212;27;4320;-63
2022/05/08 12:26:22;;;;;;;;;;;;;;;20.99;41.81;102107.16;5118838;27;4392;-63
2022/05/08 12:28:50;;;;;;;;;;;;;;;20.99;42.08;102094.88;5120905;27;4150;-63
2022/05/08 12:31:16;;;;;;;;;;;;;;;21.00;42.16;102090.63;5117111;27;4232;-64
2022/05/08 12:33:44;;;;;;;;;;;;;;;21.01;42.53;102086.38;5115029;27;4256;-63
2022/05/08 12:36:10;;;;;;;;;;;;;;;21.02;42.54;102087.88;5119759;27;5378;-65
2022/05/08 12:38:36;;;;;;;;;;;;;;;21.03;43.00;102077.88;5114459;27;4224;-63
2022/05/08 12:41:03;;;;;;;;;;;;;;;21.05;42.97;102080.84;5113402;27;4205;-63
2022/05/08 12:43:29;;;;;;;;;;;;;;;21.05;43.34;102087.38;5118664;27;4182;-64
2022/05/08 12:45:57;;;;;;;;;;;;;;;21.07;43.82;102081.75;5118279;27;4197;-63
2022/05/08 12:48:24;;;;;;;;;;;;;;;21.07;43.74;102089.63;5115860;27;5265;-64
2022/05/08 12:50:51;;;;;;;;;;;;;;;21.10;44.13;102085.50;5119344;27;4065;-64
2022/05/08 12:53:17;;;;;;;;;;;;;;;21.10;43.81;102076.88;5117389;27;5239;-64
2022/05/08 12:55:43;;;;;;;;;;;;;;;21.10;43.93;102071.84;5118748;27;4200;-64
2022/05/08 13:00:55;;;;;;;;;;;;;;;21.13;44.31;102069.84;5116065;27;5352;-64
2022/05/08 13:03:21;;;;;;;;;;;;;;;21.14;44.63;102068.47;5117355;27;4417;-64
2022/05/08 13:05:49;;;;;;;;;;;;;;;21.16;44.52;102074.34;5116434;27;5255;-64
2022/05/08 13:08:20;;;;;;;;;;;;;;;21.16;44.63;102062.84;5119046;27;4174;-64
2022/05/08 13:10:46;;;;;;;;;;;;;;;21.18;44.95;102068.72;5116862;27;4045;-64
2022/05/08 13:13:13;;;;;;;;;;;;;;;21.17;45.12;102064.34;5119222;27;4177;-64
2022/05/08 13:15:40;;;;;;;;;;;;;;;21.20;44.73;102063.09;5119528;27;4138;-64